sensor_id;sensor_type;location;lat;lon;timestamp;temperature;humidity
45729;DHT22;31439;53.512;10.206;2023-03-04T00:00:04;5.90;99.90
45729;DHT22;31439;53.512;10.206;2023-03-04T00:02:33;5.90;99.90
45729;DHT22;31439;53.512;10.206;2023-03-04T00:04:59;5.90;99.90
45729;DHT22;31439;53.512;10.206;2023-03-04T00:07:25;5.90;99.90
45729;DHT22;31439;53.512;10.206;2023-03-04T00:09:53;5.90;99.90
45729;DHT22;31439;53.512;10.206;2023-03-04T00:12:19;5.90;99.90
45729;DHT22;31439;53.512;10.206;2023-03-04T00:14:45;5.90;99.90
45729;DHT22;31439;53.512;10.206;2023-03-04T00:17:13;6.00;99.90
45729;DHT22;31439;53.512;10.206;2023-03-04T00:19:39;5.90;99.90
45729;DHT22;31439;53.512;10.206;2023-03-04T00:22:05;5.90;99.90
45729;DHT22;31439;53.512;10.206;2023-03-04T00:24:31;5.90;99.90
45729;DHT22;31439;53.512;10.206;2023-03-04T00:26:56;5.90;99.90
45729;DHT22;31439;53.512;10.206;2023-03-04T00:29:22;5.90;99.90
45729;DHT22;31439;53.512;10.206;2023-03-04T00:31:48;6.00;99.90
45729;DHT22;31439;53.512;10.206;2023-03-04T00:34:13;6.00;99.90
45729;DHT22;31439;53.512;10.206;2023-03-04T00:36:39;5.90;99.90
45729;DHT22;31439;53.512;10.206;2023-03-04T00:39:05;6.00;99.90
45729;DHT22;31439;53.512;10.206;2023-03-04T00:41:30;6.00;99.90
45729;DHT22;31439;53.512;10.206;2023-03-04T00:43:56;6.00;99.90
45729;DHT22;31439;53.512;10.206;2023-03-04T00:46:22;6.00;99.90
45729;DHT22;31439;53.512;10.206;2023-03-04T00:48:50;6.00;99.90
45729;DHT22;31439;53.512;10.206;2023-03-04T00:51:15;6.00;99.90
45729;DHT22;31439;53.512;10.206;2023-03-04T00:53:41;6.00;99.90
45729;DHT22;31439;53.512;10.206;2023-03-04T00:56:07;6.00;99.90
45729;DHT22;31439;53.512;10.206;2023-03-04T00:58:32;6.00;99.90
45729;DHT22;31439;53.512;10.206;2023-03-04T01:00:58;6.00;99.90
45729;DHT22;31439;53.512;10.206;2023-03-04T01:03:24;6.00;99.90
45729;DHT22;31439;53.512;10.206;2023-03-04T01:05:51;6.00;99.90
45729;DHT22;31439;53.512;10.206;2023-03-04T01:08:16;6.10;99.90
45729;DHT22;31439;53.512;10.206;2023-03-04T01:10:42;6.10;99.90
45729;DHT22;31439;53.512;10.206;2023-03-04T01:13:08;6.00;99.90
45729;DHT22;31439;53.512;10.206;2023-03-04T01:15:33;6.00;99.90
45729;DHT22;31439;53.512;10.206;2023-03-04T01:17:59;6.10;99.90
45729;DHT22;31439;53.512;10.206;2023-03-04T01:20:27;6.10;99.90
45729;DHT22;31439;53.512;10.206;2023-03-04T01:22:52;6.10;99.90
45729;DHT22;31439;53.512;10.206;2023-03-04T01:25:21;6.10;99.90
45729;DHT22;31439;53.512;10.206;2023-03-04T01:27:47;6.10;99.90
45729;DHT22;31439;53.512;10.206;2023-03-04T01:30:13;6.10;99.90
45729;DHT22;31439;53.512;10.206;2023-03-04T01:32:38;6.10;99.90
45729;DHT22;31439;53.512;10.206;2023-03-04T01:35:07;6.10;99.90
45729;DHT22;31439;53.512;10.206;2023-03-04T01:37:38;6.20;99.90
45729;DHT22;31439;53.512;10.206;2023-03-04T01:40:04;6.20;99.90
45729;DHT22;31439;53.512;10.206;2023-03-04T01:42:32;6.20;99.90
45729;DHT22;31439;53.512;10.206;2023-03-04T01:44:59;6.20;99.90
45729;DHT22;31439;53.512;10.206;2023-03-04T01:47:27;6.20;99.90
45729;DHT22;31439;53.512;10.206;2023-03-04T01:49:56;6.20;99.90
45729;DHT22;31439;53.512;10.206;2023-03-04T01:52:21;6.20;99.90
45729;DHT22;31439;53.512;10.206;2023-03-04T01:54:47;6.10;99.90
45729;DHT22;31439;53.512;10.206;2023-03-04T01:57:24;6.20;99.90
45729;DHT22;31439;53.512;10.206;2023-03-04T02:00:16;6.10;99.90
45729;DHT22;31439;53.512;10.206;2023-03-04T02:02:44;6.10;99.90
45729;DHT22;31439;53.512;10.206;2023-03-04T02:05:10;6.10;99.90
45729;DHT22;31439;53.512;10.206;2023-03-04T02:07:37;6.20;99.90
45729;DHT22;31439;53.512;10.206;2023-03-04T02:10:04;6.20;99.90
45729;DHT22;31439;53.512;10.206;2023-03-04T02:12:29;6.20;99.90
45729;DHT22;31439;53.512;10.206;2023-03-04T02:14:55;6.10;99.90
45729;DHT22;31439;53.512;10.206;2023-03-04T02:17:27;6.20;99.90
45729;DHT22;31439;53.512;10.206;2023-03-04T02:22:28;6.20;99.90
45729;DHT22;31439;53.512;10.206;2023-03-04T02:24:58;6.10;99.90
45729;DHT22;31439;53.512;10.206;2023-03-04T02:27:25;6.10;99.90
45729;DHT22;31439;53.512;10.206;2023-03-04T02:29:51;6.10;99.90
45729;DHT22;31439;53.512;10.206;2023-03-04T02:32:17;6.10;99.90
45729;DHT22;31439;53.512;10.206;2023-03-04T02:34:50;6.20;99.90
45729;DHT22;31439;53.512;10.206;2023-03-04T02:37:17;6.10;99.90
45729;DHT22;31439;53.512;10.206;2023-03-04T02:39:44;6.10;99.90
45729;DHT22;31439;53.512;10.206;2023-03-04T02:42:10;6.10;99.90
45729;DHT22;31439;53.512;10.206;2023-03-04T02:44:39;6.20;99.90
45729;DHT22;31439;53.512;10.206;2023-03-04T02:47:08;6.20;99.90
45729;DHT22;31439;53.512;10.206;2023-03-04T02:49:35;6.20;99.90
45729;DHT22;31439;53.512;10.206;2023-03-04T02:52:03;6.20;99.90
45729;DHT22;31439;53.512;10.206;2023-03-04T02:54:30;6.20;99.90
45729;DHT22;31439;53.512;10.206;2023-03-04T02:57:00;6.20;99.90
45729;DHT22;31439;53.512;10.206;2023-03-04T02:59:27;6.20;99.90
45729;DHT22;31439;53.512;10.206;2023-03-04T03:01:53;6.10;99.90
45729;DHT22;31439;53.512;10.206;2023-03-04T03:04:19;6.20;99.90
45729;DHT22;31439;53.512;10.206;2023-03-04T03:06:46;6.10;99.90
45729;DHT22;31439;53.512;10.206;2023-03-04T03:09:12;6.10;99.90
45729;DHT22;31439;53.512;10.206;2023-03-04T03:11:37;6.20;99.90
45729;DHT22;31439;53.512;10.206;2023-03-04T03:14:04;6.00;99.90
45729;DHT22;31439;53.512;10.206;2023-03-04T03:16:30;6.10;99.90
45729;DHT22;31439;53.512;10.206;2023-03-04T03:18:56;6.10;99.90
45729;DHT22;31439;53.512;10.206;2023-03-04T03:21:22;6.10;99.90
45729;DHT22;31439;53.512;10.206;2023-03-04T03:23:48;6.10;99.90
45729;DHT22;31439;53.512;10.206;2023-03-04T03:26:15;6.10;99.90
45729;DHT22;31439;53.512;10.206;2023-03-04T03:28:41;6.20;99.90
45729;DHT22;31439;53.512;10.206;2023-03-04T03:31:06;6.10;99.90
45729;DHT22;31439;53.512;10.206;2023-03-04T03:33:32;6.20;99.90
45729;DHT22;31439;53.512;10.206;2023-03-04T03:35:58;6.20;99.90
45729;DHT22;31439;53.512;10.206;2023-03-04T03:38:25;6.20;99.90
45729;DHT22;31439;53.512;10.206;2023-03-04T03:40:50;6.20;99.90
45729;DHT22;31439;53.512;10.206;2023-03-04T03:43:16;6.20;99.90
45729;DHT22;31439;53.512;10.206;2023-03-04T03:45:41;6.10;99.90
45729;DHT22;31439;53.512;10.206;2023-03-04T03:48:07;6.20;99.90
45729;DHT22;31439;53.512;10.206;2023-03-04T03:50:33;6.30;99.90
45729;DHT22;31439;53.512;10.206;2023-03-04T03:52:58;6.20;99.90
45729;DHT22;31439;53.512;10.206;2023-03-04T03:55:24;6.30;99.90
45729;DHT22;31439;53.512;10.206;2023-03-04T03:57:50;6.20;99.90
45729;DHT22;31439;53.512;10.206;2023-03-04T04:00:16;6.30;99.90
45729;DHT22;31439;53.512;10.206;2023-03-04T04:02:41;6.20;99.90
45729;DHT22;31439;53.512;10.206;2023-03-04T04:05:08;6.30;99.90
45729;DHT22;31439;53.512;10.206;2023-03-04T04:07:34;6.20;99.90
45729;DHT22;31439;53.512;10.206;2023-03-04T04:10:00;6.10;99.90
45729;DHT22;31439;53.512;10.206;2023-03-04T04:12:26;6.20;99.90
45729;DHT22;31439;53.512;10.206;2023-03-04T04:14:51;6.20;99.90
45729;DHT22;31439;53.512;10.206;2023-03-04T04:17:17;6.10;99.90
45729;DHT22;31439;53.512;10.206;2023-03-04T04:19:43;6.10;99.90
45729;DHT22;31439;53.512;10.206;2023-03-04T04:22:14;6.10;99.90
45729;DHT22;31439;53.512;10.206;2023-03-04T04:24:41;6.20;99.90
45729;DHT22;31439;53.512;10.206;2023-03-04T04:27:07;6.10;99.90
45729;DHT22;31439;53.512;10.206;2023-03-04T04:29:32;6.00;99.90
45729;DHT22;31439;53.512;10.206;2023-03-04T04:31:58;6.10;99.90
45729;DHT22;31439;53.512;10.206;2023-03-04T04:34:24;6.10;99.90
45729;DHT22;31439;53.512;10.206;2023-03-04T04:36:50;6.10;99.90
45729;DHT22;31439;53.512;10.206;2023-03-04T04:39:16;6.10;99.90
45729;DHT22;31439;53.512;10.206;2023-03-04T04:41:43;6.10;99.90
45729;DHT22;31439;53.512;10.206;2023-03-04T04:44:09;6.10;99.90
45729;DHT22;31439;53.512;10.206;2023-03-04T04:46:36;6.10;99.90
45729;DHT22;31439;53.512;10.206;2023-03-04T04:49:02;6.10;99.90
45729;DHT22;31439;53.512;10.206;2023-03-04T04:51:28;6.10;99.90
45729;DHT22;31439;53.512;10.206;2023-03-04T04:53:54;6.20;99.90
45729;DHT22;31439;53.512;10.206;2023-03-04T04:56:22;6.20;99.90
45729;DHT22;31439;53.512;10.206;2023-03-04T04:58:49;6.20;99.90
45729;DHT22;31439;53.512;10.206;2023-03-04T05:01:14;6.20;99.90
45729;DHT22;31439;53.512;10.206;2023-03-04T05:03:41;6.30;99.90
45729;DHT22;31439;53.512;10.206;2023-03-04T05:06:08;6.20;99.90
45729;DHT22;31439;53.512;10.206;2023-03-04T05:08:34;6.20;99.90
45729;DHT22;31439;53.512;10.206;2023-03-04T05:11:00;6.20;99.90
45729;DHT22;31439;53.512;10.206;2023-03-04T05:13:27;6.30;99.90
45729;DHT22;31439;53.512;10.206;2023-03-04T05:15:54;6.30;99.90
45729;DHT22;31439;53.512;10.206;2023-03-04T05:18:21;6.30;99.90
45729;DHT22;31439;53.512;10.206;2023-03-04T05:20:58;6.30;99.90
45729;DHT22;31439;53.512;10.206;2023-03-04T05:23:25;6.40;99.90
45729;DHT22;31439;53.512;10.206;2023-03-04T05:25:51;6.30;99.90
45729;DHT22;31439;53.512;10.206;2023-03-04T05:28:17;6.30;99.90
45729;DHT22;31439;53.512;10.206;2023-03-04T05:30:44;6.30;99.90
45729;DHT22;31439;53.512;10.206;2023-03-04T05:33:11;6.30;99.90
45729;DHT22;31439;53.512;10.206;2023-03-04T05:35:38;6.30;99.90
45729;DHT22;31439;53.512;10.206;2023-03-04T05:38:06;6.30;99.90
45729;DHT22;31439;53.512;10.206;2023-03-04T05:40:33;6.40;99.90
45729;DHT22;31439;53.512;10.206;2023-03-04T05:42:59;6.40;99.90
45729;DHT22;31439;53.512;10.206;2023-03-04T05:45:25;6.40;99.90
45729;DHT22;31439;53.512;10.206;2023-03-04T05:47:51;6.40;99.90
45729;DHT22;31439;53.512;10.206;2023-03-04T05:50:17;6.40;99.90
45729;DHT22;31439;53.512;10.206;2023-03-04T05:52:42;6.40;99.90
45729;DHT22;31439;53.512;10.206;2023-03-04T05:55:08;6.40;99.90
45729;DHT22;31439;53.512;10.206;2023-03-04T05:57:34;6.40;99.90
45729;DHT22;31439;53.512;10.206;2023-03-04T06:00:00;6.30;99.90
45729;DHT22;31439;53.512;10.206;2023-03-04T06:02:26;6.30;99.90
45729;DHT22;31439;53.512;10.206;2023-03-04T06:04:51;6.20;99.90
45729;DHT22;31439;53.512;10.206;2023-03-04T06:07:17;6.20;99.90
45729;DHT22;31439;53.512;10.206;2023-03-04T06:09:43;6.20;99.90
45729;DHT22;31439;53.512;10.206;2023-03-04T06:12:10;6.20;99.90
45729;DHT22;31439;53.512;10.206;2023-03-04T06:14:36;6.20;99.90
45729;DHT22;31439;53.512;10.206;2023-03-04T06:17:01;6.20;99.90
45729;DHT22;31439;53.512;10.206;2023-03-04T06:19:27;6.10;99.90
45729;DHT22;31439;53.512;10.206;2023-03-04T06:21:53;6.10;99.90
45729;DHT22;31439;53.512;10.206;2023-03-04T06:24:18;6.10;99.90
45729;DHT22;31439;53.512;10.206;2023-03-04T06:26:44;6.10;99.90
45729;DHT22;31439;53.512;10.206;2023-03-04T06:29:10;6.00;99.90
45729;DHT22;31439;53.512;10.206;2023-03-04T06:31:35;6.10;99.90
45729;DHT22;31439;53.512;10.206;2023-03-04T06:34:01;6.10;99.90
45729;DHT22;31439;53.512;10.206;2023-03-04T06:36:26;6.10;99.90
45729;DHT22;31439;53.512;10.206;2023-03-04T06:38:52;6.00;99.90
45729;DHT22;31439;53.512;10.206;2023-03-04T06:41:18;6.00;99.90
45729;DHT22;31439;53.512;10.206;2023-03-04T06:43:43;5.90;99.90
45729;DHT22;31439;53.512;10.206;2023-03-04T06:46:09;5.90;99.90
45729;DHT22;31439;53.512;10.206;2023-03-04T06:48:35;5.90;99.90
45729;DHT22;31439;53.512;10.206;2023-03-04T06:51:06;5.80;99.90
45729;DHT22;31439;53.512;10.206;2023-03-04T06:53:32;5.70;99.90
45729;DHT22;31439;53.512;10.206;2023-03-04T06:55:57;5.90;99.90
45729;DHT22;31439;53.512;10.206;2023-03-04T06:58:23;5.90;99.90
45729;DHT22;31439;53.512;10.206;2023-03-04T07:00:48;5.90;99.90
45729;DHT22;31439;53.512;10.206;2023-03-04T07:03:14;5.80;99.90
45729;DHT22;31439;53.512;10.206;2023-03-04T07:05:41;5.80;99.90
45729;DHT22;31439;53.512;10.206;2023-03-04T07:08:07;5.80;99.90
45729;DHT22;31439;53.512;10.206;2023-03-04T07:10:33;5.80;99.90
45729;DHT22;31439;53.512;10.206;2023-03-04T07:12:59;5.70;99.90
45729;DHT22;31439;53.512;10.206;2023-03-04T07:15:25;5.90;99.90
45729;DHT22;31439;53.512;10.206;2023-03-04T07:17:50;5.80;99.90
45729;DHT22;31439;53.512;10.206;2023-03-04T07:20:17;5.90;99.90
45729;DHT22;31439;53.512;10.206;2023-03-04T07:22:42;5.90;99.90
45729;DHT22;31439;53.512;10.206;2023-03-04T07:25:08;5.90;99.90
45729;DHT22;31439;53.512;10.206;2023-03-04T07:27:34;5.90;99.90
45729;DHT22;31439;53.512;10.206;2023-03-04T07:30:00;5.90;99.90
45729;DHT22;31439;53.512;10.206;2023-03-04T07:32:25;5.80;99.90
45729;DHT22;31439;53.512;10.206;2023-03-04T07:34:51;5.90;99.90
45729;DHT22;31439;53.512;10.206;2023-03-04T07:37:16;5.80;99.90
45729;DHT22;31439;53.512;10.206;2023-03-04T07:39:42;5.80;99.90
45729;DHT22;31439;53.512;10.206;2023-03-04T07:42:08;5.90;99.90
45729;DHT22;31439;53.512;10.206;2023-03-04T07:44:33;5.90;99.90
45729;DHT22;31439;53.512;10.206;2023-03-04T07:46:59;5.80;99.90
45729;DHT22;31439;53.512;10.206;2023-03-04T07:49:25;5.80;99.90
45729;DHT22;31439;53.512;10.206;2023-03-04T07:51:50;5.90;99.90
45729;DHT22;31439;53.512;10.206;2023-03-04T07:54:16;6.00;99.90
45729;DHT22;31439;53.512;10.206;2023-03-04T07:56:44;6.00;99.90
45729;DHT22;31439;53.512;10.206;2023-03-04T07:59:10;5.90;99.90
45729;DHT22;31439;53.512;10.206;2023-03-04T08:01:36;5.90;99.90
45729;DHT22;31439;53.512;10.206;2023-03-04T08:04:04;5.90;99.90
45729;DHT22;31439;53.512;10.206;2023-03-04T08:06:30;6.00;99.90
45729;DHT22;31439;53.512;10.206;2023-03-04T08:09:01;6.00;99.90
45729;DHT22;31439;53.512;10.206;2023-03-04T08:11:29;6.00;99.90
45729;DHT22;31439;53.512;10.206;2023-03-04T08:13:55;5.80;99.90
45729;DHT22;31439;53.512;10.206;2023-03-04T08:16:22;6.00;99.90
45729;DHT22;31439;53.512;10.206;2023-03-04T08:18:51;6.00;99.90
45729;DHT22;31439;53.512;10.206;2023-03-04T08:21:18;5.90;99.90
45729;DHT22;31439;53.512;10.206;2023-03-04T08:23:45;5.90;99.90
45729;DHT22;31439;53.512;10.206;2023-03-04T08:26:18;5.80;99.90
45729;DHT22;31439;53.512;10.206;2023-03-04T08:28:44;5.90;99.90
45729;DHT22;31439;53.512;10.206;2023-03-04T08:31:12;5.90;99.90
45729;DHT22;31439;53.512;10.206;2023-03-04T08:33:38;5.90;99.90
45729;DHT22;31439;53.512;10.206;2023-03-04T08:36:04;5.90;99.90
45729;DHT22;31439;53.512;10.206;2023-03-04T08:38:29;6.00;99.90
45729;DHT22;31439;53.512;10.206;2023-03-04T08:40:56;6.00;99.90
45729;DHT22;31439;53.512;10.206;2023-03-04T08:43:24;6.00;99.90
45729;DHT22;31439;53.512;10.206;2023-03-04T08:45:50;6.00;99.90
45729;DHT22;31439;53.512;10.206;2023-03-04T08:48:16;6.00;99.90
45729;DHT22;31439;53.512;10.206;2023-03-04T08:50:44;6.00;99.90
45729;DHT22;31439;53.512;10.206;2023-03-04T08:53:10;5.90;99.90
45729;DHT22;31439;53.512;10.206;2023-03-04T08:55:40;6.00;99.90
45729;DHT22;31439;53.512;10.206;2023-03-04T08:58:06;6.00;99.90
45729;DHT22;31439;53.512;10.206;2023-03-04T09:00:36;6.00;99.90
45729;DHT22;31439;53.512;10.206;2023-03-04T09:03:03;6.00;99.90
45729;DHT22;31439;53.512;10.206;2023-03-04T09:05:29;6.00;99.90
45729;DHT22;31439;53.512;10.206;2023-03-04T09:07:55;6.10;99.90
45729;DHT22;31439;53.512;10.206;2023-03-04T09:10:21;6.00;99.90
45729;DHT22;31439;53.512;10.206;2023-03-04T09:12:47;6.00;99.90
45729;DHT22;31439;53.512;10.206;2023-03-04T09:15:13;6.00;99.90
45729;DHT22;31439;53.512;10.206;2023-03-04T09:17:39;6.00;99.90
45729;DHT22;31439;53.512;10.206;2023-03-04T09:20:07;6.00;99.90
45729;DHT22;31439;53.512;10.206;2023-03-04T09:22:37;5.90;99.90
45729;DHT22;31439;53.512;10.206;2023-03-04T09:25:04;5.90;99.90
45729;DHT22;31439;53.512;10.206;2023-03-04T09:27:29;6.00;99.90
45729;DHT22;31439;53.512;10.206;2023-03-04T09:29:55;6.00;99.90
45729;DHT22;31439;53.512;10.206;2023-03-04T09:32:21;6.00;99.90
45729;DHT22;31439;53.512;10.206;2023-03-04T09:34:46;5.90;99.90
45729;DHT22;31439;53.512;10.206;2023-03-04T09:37:12;5.90;99.90
45729;DHT22;31439;53.512;10.206;2023-03-04T09:39:38;6.00;99.90
45729;DHT22;31439;53.512;10.206;2023-03-04T09:42:05;6.00;99.90
45729;DHT22;31439;53.512;10.206;2023-03-04T09:44:36;6.00;99.90
45729;DHT22;31439;53.512;10.206;2023-03-04T09:47:08;6.00;99.90
45729;DHT22;31439;53.512;10.206;2023-03-04T09:49:37;6.00;99.90
45729;DHT22;31439;53.512;10.206;2023-03-04T09:57:28;6.00;99.90
45729;DHT22;31439;53.512;10.206;2023-03-04T10:00:24;6.10;99.90
45729;DHT22;31439;53.512;10.206;2023-03-04T10:03:10;6.10;99.90
45729;DHT22;31439;53.512;10.206;2023-03-04T10:06:06;6.10;99.90
45729;DHT22;31439;53.512;10.206;2023-03-04T10:11:16;6.10;99.90
45729;DHT22;31439;53.512;10.206;2023-03-04T10:16:22;6.20;99.90
45729;DHT22;31439;53.512;10.206;2023-03-04T10:18:55;6.20;99.90
45729;DHT22;31439;53.512;10.206;2023-03-04T10:21:29;6.10;99.90
45729;DHT22;31439;53.512;10.206;2023-03-04T10:23:59;6.10;99.90
45729;DHT22;31439;53.512;10.206;2023-03-04T10:26:29;6.10;99.90
45729;DHT22;31439;53.512;10.206;2023-03-04T10:28:57;6.40;99.90
45729;DHT22;31439;53.512;10.206;2023-03-04T10:31:34;6.90;99.90
45729;DHT22;31439;53.512;10.206;2023-03-04T10:34:04;7.40;99.90
45729;DHT22;31439;53.512;10.206;2023-03-04T10:39:13;6.80;99.90
45729;DHT22;31439;53.512;10.206;2023-03-04T10:41:48;6.60;99.90
45729;DHT22;31439;53.512;10.206;2023-03-04T10:44:18;6.70;99.90
45729;DHT22;31439;53.512;10.206;2023-03-04T10:46:46;6.80;99.90
45729;DHT22;31439;53.512;10.206;2023-03-04T10:49:14;6.70;99.90
45729;DHT22;31439;53.512;10.206;2023-03-04T10:51:43;6.60;99.90
45729;DHT22;31439;53.512;10.206;2023-03-04T10:54:26;6.60;99.90
45729;DHT22;31439;53.512;10.206;2023-03-04T10:56:56;6.70;99.90
45729;DHT22;31439;53.512;10.206;2023-03-04T11:02:26;6.40;99.90
45729;DHT22;31439;53.512;10.206;2023-03-04T11:07:30;6.50;99.90
45729;DHT22;31439;53.512;10.206;2023-03-04T11:10:08;6.50;99.90
45729;DHT22;31439;53.512;10.206;2023-03-04T11:12:34;6.60;99.90
45729;DHT22;31439;53.512;10.206;2023-03-04T11:15:00;6.70;99.90
45729;DHT22;31439;53.512;10.206;2023-03-04T11:17:28;6.60;99.90
45729;DHT22;31439;53.512;10.206;2023-03-04T11:20:15;6.70;99.90
45729;DHT22;31439;53.512;10.206;2023-03-04T11:22:44;6.50;99.90
45729;DHT22;31439;53.512;10.206;2023-03-04T11:25:30;6.50;99.90
45729;DHT22;31439;53.512;10.206;2023-03-04T11:30:41;6.30;99.90
45729;DHT22;31439;53.512;10.206;2023-03-04T11:33:26;6.40;99.90
45729;DHT22;31439;53.512;10.206;2023-03-04T11:38:35;6.60;99.90
45729;DHT22;31439;53.512;10.206;2023-03-04T11:41:12;6.60;99.90
45729;DHT22;31439;53.512;10.206;2023-03-04T11:43:41;6.70;99.90
45729;DHT22;31439;53.512;10.206;2023-03-04T12:00:32;7.00;99.90
45729;DHT22;31439;53.512;10.206;2023-03-04T12:06:31;7.20;99.90
45729;DHT22;31439;53.512;10.206;2023-03-04T12:17:18;7.20;99.90
45729;DHT22;31439;53.512;10.206;2023-03-04T12:22:51;7.40;99.90
45729;DHT22;31439;53.512;10.206;2023-03-04T12:28:00;7.40;99.90
45729;DHT22;31439;53.512;10.206;2023-03-04T12:49:26;7.10;99.90
45729;DHT22;31439;53.512;10.206;2023-03-04T12:51:58;7.20;99.90
45729;DHT22;31439;53.512;10.206;2023-03-04T12:57:06;7.20;99.90
45729;DHT22;31439;53.512;10.206;2023-03-04T12:59:41;7.30;99.90
45729;DHT22;31439;53.512;10.206;2023-03-04T13:10:31;7.40;99.90
45729;DHT22;31439;53.512;10.206;2023-03-04T13:12:59;7.30;99.90
45729;DHT22;31439;53.512;10.206;2023-03-04T13:17:51;7.30;99.90
45729;DHT22;31439;53.512;10.206;2023-03-04T13:22:52;7.30;99.90
45729;DHT22;31439;53.512;10.206;2023-03-04T13:41:23;7.20;99.90
45729;DHT22;31439;53.512;10.206;2023-03-04T13:43:53;7.20;99.90
45729;DHT22;31439;53.512;10.206;2023-03-04T13:51:29;7.10;99.90
45729;DHT22;31439;53.512;10.206;2023-03-04T13:56:35;7.00;99.90
45729;DHT22;31439;53.512;10.206;2023-03-04T13:59:09;7.10;99.90
45729;DHT22;31439;53.512;10.206;2023-03-04T14:04:23;7.20;99.90
45729;DHT22;31439;53.512;10.206;2023-03-04T14:06:52;7.10;99.90
45729;DHT22;31439;53.512;10.206;2023-03-04T14:09:27;7.00;99.90
45729;DHT22;31439;53.512;10.206;2023-03-04T14:12:04;6.90;99.90
45729;DHT22;31439;53.512;10.206;2023-03-04T14:17:23;6.80;99.90
45729;DHT22;31439;53.512;10.206;2023-03-04T14:19:50;6.80;99.90
45729;DHT22;31439;53.512;10.206;2023-03-04T14:22:36;6.70;99.90
45729;DHT22;31439;53.512;10.206;2023-03-04T14:25:14;6.80;99.90
45729;DHT22;31439;53.512;10.206;2023-03-04T14:27:44;6.80;99.90
45729;DHT22;31439;53.512;10.206;2023-03-04T14:30:22;6.80;99.90
45729;DHT22;31439;53.512;10.206;2023-03-04T14:32:51;6.90;99.90
45729;DHT22;31439;53.512;10.206;2023-03-04T14:35:22;6.80;99.90
45729;DHT22;31439;53.512;10.206;2023-03-04T14:40:31;6.70;99.90
45729;DHT22;31439;53.512;10.206;2023-03-04T14:43:04;6.60;99.90
45729;DHT22;31439;53.512;10.206;2023-03-04T14:45:31;6.70;99.90
45729;DHT22;31439;53.512;10.206;2023-03-04T14:48:01;6.60;99.90
45729;DHT22;31439;53.512;10.206;2023-03-04T14:50:29;6.60;99.90
45729;DHT22;31439;53.512;10.206;2023-03-04T14:55:35;6.70;99.90
45729;DHT22;31439;53.512;10.206;2023-03-04T14:58:20;6.50;99.90
45729;DHT22;31439;53.512;10.206;2023-03-04T15:01:18;6.50;99.90
45729;DHT22;31439;53.512;10.206;2023-03-04T15:06:22;6.50;99.90
45729;DHT22;31439;53.512;10.206;2023-03-04T15:09:24;6.50;99.90
45729;DHT22;31439;53.512;10.206;2023-03-04T15:12:01;6.50;99.90
45729;DHT22;31439;53.512;10.206;2023-03-04T15:14:50;6.40;99.90
45729;DHT22;31439;53.512;10.206;2023-03-04T15:22:24;6.50;99.90
45729;DHT22;31439;53.512;10.206;2023-03-04T15:24:56;6.40;99.90
45729;DHT22;31439;53.512;10.206;2023-03-04T15:27:29;6.40;99.90
45729;DHT22;31439;53.512;10.206;2023-03-04T15:29:57;6.40;99.90
45729;DHT22;31439;53.512;10.206;2023-03-04T15:32:30;6.30;99.90
45729;DHT22;31439;53.512;10.206;2023-03-04T15:34:56;6.20;99.90
45729;DHT22;31439;53.512;10.206;2023-03-04T15:37:27;6.20;99.90
45729;DHT22;31439;53.512;10.206;2023-03-04T15:39:55;6.20;99.90
45729;DHT22;31439;53.512;10.206;2023-03-04T15:42:21;6.10;99.90
45729;DHT22;31439;53.512;10.206;2023-03-04T15:44:47;6.20;99.90
45729;DHT22;31439;53.512;10.206;2023-03-04T15:47:13;6.00;99.90
45729;DHT22;31439;53.512;10.206;2023-03-04T15:49:40;6.10;99.90
45729;DHT22;31439;53.512;10.206;2023-03-04T15:52:11;6.00;99.90
45729;DHT22;31439;53.512;10.206;2023-03-04T15:54:39;6.10;99.90
45729;DHT22;31439;53.512;10.206;2023-03-04T15:57:08;6.00;99.90
45729;DHT22;31439;53.512;10.206;2023-03-04T15:59:38;5.90;99.90
45729;DHT22;31439;53.512;10.206;2023-03-04T16:02:09;5.80;99.90
45729;DHT22;31439;53.512;10.206;2023-03-04T16:04:35;5.80;99.90
45729;DHT22;31439;53.512;10.206;2023-03-04T16:07:01;5.80;99.90
45729;DHT22;31439;53.512;10.206;2023-03-04T16:09:26;5.80;99.90
45729;DHT22;31439;53.512;10.206;2023-03-04T16:11:52;5.70;99.90
45729;DHT22;31439;53.512;10.206;2023-03-04T16:14:20;5.70;99.90
45729;DHT22;31439;53.512;10.206;2023-03-04T16:16:46;5.80;99.90
45729;DHT22;31439;53.512;10.206;2023-03-04T16:19:15;5.70;99.90
45729;DHT22;31439;53.512;10.206;2023-03-04T16:21:43;5.70;99.90
45729;DHT22;31439;53.512;10.206;2023-03-04T16:24:16;5.70;99.90
45729;DHT22;31439;53.512;10.206;2023-03-04T16:26:42;5.80;99.90
45729;DHT22;31439;53.512;10.206;2023-03-04T16:29:08;5.60;99.90
45729;DHT22;31439;53.512;10.206;2023-03-04T16:31:34;5.50;99.90
45729;DHT22;31439;53.512;10.206;2023-03-04T16:34:02;5.60;99.90
45729;DHT22;31439;53.512;10.206;2023-03-04T16:36:28;5.80;99.90
45729;DHT22;31439;53.512;10.206;2023-03-04T16:38:54;5.60;99.90
45729;DHT22;31439;53.512;10.206;2023-03-04T16:41:26;5.60;99.90
45729;DHT22;31439;53.512;10.206;2023-03-04T16:43:58;5.50;99.90
45729;DHT22;31439;53.512;10.206;2023-03-04T16:46:25;5.50;99.90
45729;DHT22;31439;53.512;10.206;2023-03-04T16:48:56;5.40;99.90
45729;DHT22;31439;53.512;10.206;2023-03-04T16:51:25;5.50;99.90
45729;DHT22;31439;53.512;10.206;2023-03-04T16:53:58;5.50;99.90
45729;DHT22;31439;53.512;10.206;2023-03-04T16:56:24;5.50;99.90
45729;DHT22;31439;53.512;10.206;2023-03-04T16:58:55;5.50;99.90
45729;DHT22;31439;53.512;10.206;2023-03-04T17:01:26;5.50;99.90
45729;DHT22;31439;53.512;10.206;2023-03-04T17:03:52;5.60;99.90
45729;DHT22;31439;53.512;10.206;2023-03-04T17:06:19;5.60;99.90
45729;DHT22;31439;53.512;10.206;2023-03-04T17:08:46;5.50;99.90
45729;DHT22;31439;53.512;10.206;2023-03-04T17:11:15;5.40;99.90
45729;DHT22;31439;53.512;10.206;2023-03-04T17:13:41;5.40;99.90
45729;DHT22;31439;53.512;10.206;2023-03-04T17:16:07;5.40;99.90
45729;DHT22;31439;53.512;10.206;2023-03-04T17:18:33;5.30;99.90
45729;DHT22;31439;53.512;10.206;2023-03-04T17:21:10;5.40;99.90
45729;DHT22;31439;53.512;10.206;2023-03-04T17:23:35;5.40;99.90
45729;DHT22;31439;53.512;10.206;2023-03-04T17:26:01;5.40;99.90
45729;DHT22;31439;53.512;10.206;2023-03-04T17:28:28;5.30;99.90
45729;DHT22;31439;53.512;10.206;2023-03-04T17:30:53;5.30;99.90
45729;DHT22;31439;53.512;10.206;2023-03-04T17:33:19;5.30;99.90
45729;DHT22;31439;53.512;10.206;2023-03-04T17:35:45;5.20;99.90
45729;DHT22;31439;53.512;10.206;2023-03-04T17:38:12;5.10;99.90
45729;DHT22;31439;53.512;10.206;2023-03-04T17:40:39;5.20;99.90
45729;DHT22;31439;53.512;10.206;2023-03-04T17:43:05;5.20;99.90
45729;DHT22;31439;53.512;10.206;2023-03-04T17:45:43;5.20;99.90
45729;DHT22;31439;53.512;10.206;2023-03-04T17:48:11;5.20;99.90
45729;DHT22;31439;53.512;10.206;2023-03-04T17:50:50;5.20;99.90